sensor_id;sensor_type;location;lat;lon;timestamp;temperature;humidity
59703;DHT22;45570;48.782;8.332;2022-11-11T09:03:43;10.40;99.90
59703;DHT22;45570;48.782;8.332;2022-11-11T09:06:31;10.60;99.90
59703;DHT22;45570;48.782;8.332;2022-11-11T09:09:18;11.00;99.90
59703;DHT22;45570;48.782;8.332;2022-11-11T09:12:05;10.90;99.90
59703;DHT22;45570;48.782;8.332;2022-11-11T09:14:52;10.70;99.90
59703;DHT22;45570;48.782;8.332;2022-11-11T09:17:39;10.50;99.90
59703;DHT22;45570;48.782;8.332;2022-11-11T09:20:33;10.40;99.90
59703;DHT22;45570;48.782;8.332;2022-11-11T09:23:20;10.20;99.90
59703;DHT22;45570;48.782;8.332;2022-11-11T09:26:08;10.10;99.90
59703;DHT22;45570;48.782;8.332;2022-11-11T09:28:55;10.20;99.90
59703;DHT22;45570;48.782;8.332;2022-11-11T09:31:42;10.20;99.90
59703;DHT22;45570;48.782;8.332;2022-11-11T09:34:30;10.10;99.90
59703;DHT22;45570;48.782;8.332;2022-11-11T09:37:19;10.20;99.90
59703;DHT22;45570;48.782;8.332;2022-11-11T09:40:10;10.40;99.90
59703;DHT22;45570;48.782;8.332;2022-11-11T09:43:08;10.60;99.90
59703;DHT22;45570;48.782;8.332;2022-11-11T09:46:10;11.00;99.90
59703;DHT22;45570;48.782;8.332;2022-11-11T09:49:27;11.40;99.90
59703;DHT22;45570;48.782;8.332;2022-11-11T09:52:20;11.70;99.90
59703;DHT22;45570;48.782;8.332;2022-11-11T09:55:15;12.20;99.90
59703;DHT22;45570;48.782;8.332;2022-11-11T09:58:05;12.50;99.90
59703;DHT22;45570;48.782;8.332;2022-11-11T10:00:58;12.90;99.90
59703;DHT22;45570;48.782;8.332;2022-11-11T10:03:51;13.10;99.90
59703;DHT22;45570;48.782;8.332;2022-11-11T10:06:41;13.40;99.90
59703;DHT22;45570;48.782;8.332;2022-11-11T10:09:34;13.60;99.90
59703;DHT22;45570;48.782;8.332;2022-11-11T10:12:34;13.90;99.90
59703;DHT22;45570;48.782;8.332;2022-11-11T10:15:34;14.00;99.90
59703;DHT22;45570;48.782;8.332;2022-11-11T10:18:34;14.30;99.90
59703;DHT22;45570;48.782;8.332;2022-11-11T10:21:30;14.90;99.90
59703;DHT22;45570;48.782;8.332;2022-11-11T10:24:46;14.90;99.90
59703;DHT22;45570;48.782;8.332;2022-11-11T10:27:39;15.20;99.90
59703;DHT22;45570;48.782;8.332;2022-11-11T10:30:29;15.00;99.90
59703;DHT22;45570;48.782;8.332;2022-11-11T10:33:19;14.50;99.90
59703;DHT22;45570;48.782;8.332;2022-11-11T10:36:15;14.30;99.90
59703;DHT22;45570;48.782;8.332;2022-11-11T10:39:04;14.60;99.90
59703;DHT22;45570;48.782;8.332;2022-11-11T10:41:53;15.00;99.90
59703;DHT22;45570;48.782;8.332;2022-11-11T10:44:41;14.90;99.90
59703;DHT22;45570;48.782;8.332;2022-11-11T10:47:38;14.60;99.90
59703;DHT22;45570;48.782;8.332;2022-11-11T10:50:32;14.10;99.90
59703;DHT22;45570;48.782;8.332;2022-11-11T10:53:27;13.70;99.90
59703;DHT22;45570;48.782;8.332;2022-11-11T10:56:22;13.60;99.90
59703;DHT22;45570;48.782;8.332;2022-11-11T10:59:15;13.60;99.90
59703;DHT22;45570;48.782;8.332;2022-11-11T11:02:08;13.40;99.90
59703;DHT22;45570;48.782;8.332;2022-11-11T11:05:04;13.50;99.90
59703;DHT22;45570;48.782;8.332;2022-11-11T11:07:55;13.30;99.90
59703;DHT22;45570;48.782;8.332;2022-11-11T11:10:47;13.00;99.90
59703;DHT22;45570;48.782;8.332;2022-11-11T11:13:41;12.50;99.90
59703;DHT22;45570;48.782;8.332;2022-11-11T11:16:34;11.90;99.90
59703;DHT22;45570;48.782;8.332;2022-11-11T11:19:23;11.60;99.90
59703;DHT22;45570;48.782;8.332;2022-11-11T11:22:11;11.20;99.90
59703;DHT22;45570;48.782;8.332;2022-11-11T11:25:08;11.00;99.90
59703;DHT22;45570;48.782;8.332;2022-11-11T11:28:08;11.00;99.90
59703;DHT22;45570;48.782;8.332;2022-11-11T11:31:01;11.10;99.90
59703;DHT22;45570;48.782;8.332;2022-11-11T11:33:52;11.30;99.90
59703;DHT22;45570;48.782;8.332;2022-11-11T11:36:39;11.70;99.90
59703;DHT22;45570;48.782;8.332;2022-11-11T11:39:35;12.00;99.90
59703;DHT22;45570;48.782;8.332;2022-11-11T11:42:27;12.50;99.90
59703;DHT22;45570;48.782;8.332;2022-11-11T11:45:20;13.40;99.90
59703;DHT22;45570;48.782;8.332;2022-11-11T11:48:19;13.10;99.90
59703;DHT22;45570;48.782;8.332;2022-11-11T11:51:32;13.30;99.90
59703;DHT22;45570;48.782;8.332;2022-11-11T11:54:39;13.20;99.90
59703;DHT22;45570;48.782;8.332;2022-11-11T11:57:42;13.60;99.90
59703;DHT22;45570;48.782;8.332;2022-11-11T12:00:35;13.90;99.90
59703;DHT22;45570;48.782;8.332;2022-11-11T12:06:57;14.20;99.90
59703;DHT22;45570;48.782;8.332;2022-11-11T12:09:57;14.00;99.90
59703;DHT22;45570;48.782;8.332;2022-11-11T12:12:56;13.50;99.90
59703;DHT22;45570;48.782;8.332;2022-11-11T12:15:51;13.30;99.90
59703;DHT22;45570;48.782;8.332;2022-11-11T12:18:54;13.00;99.90
59703;DHT22;45570;48.782;8.332;2022-11-11T12:21:58;12.70;99.90
59703;DHT22;45570;48.782;8.332;2022-11-11T12:24:54;12.70;99.90
59703;DHT22;45570;48.782;8.332;2022-11-11T12:27:55;12.30;99.90
59703;DHT22;45570;48.782;8.332;2022-11-11T12:30:46;12.00;99.90
59703;DHT22;45570;48.782;8.332;2022-11-11T12:33:47;11.90;99.90
59703;DHT22;45570;48.782;8.332;2022-11-11T12:36:39;11.80;99.90
59703;DHT22;45570;48.782;8.332;2022-11-11T12:39:56;11.70;99.90
59703;DHT22;45570;48.782;8.332;2022-11-11T12:42:59;11.60;99.90
59703;DHT22;45570;48.782;8.332;2022-11-11T12:45:51;11.40;99.90
59703;DHT22;45570;48.782;8.332;2022-11-11T12:48:53;11.50;99.90
59703;DHT22;45570;48.782;8.332;2022-11-11T12:51:54;11.50;99.90
59703;DHT22;45570;48.782;8.332;2022-11-11T12:54:51;11.80;99.90
59703;DHT22;45570;48.782;8.332;2022-11-11T12:57:55;12.30;99.90
59703;DHT22;45570;48.782;8.332;2022-11-11T13:00:55;12.70;99.90
59703;DHT22;45570;48.782;8.332;2022-11-11T13:07:40;12.90;99.90
59703;DHT22;45570;48.782;8.332;2022-11-11T13:10:39;12.70;99.90
59703;DHT22;45570;48.782;8.332;2022-11-11T13:13:47;12.50;99.90
59703;DHT22;45570;48.782;8.332;2022-11-11T13:16:37;12.10;99.90
59703;DHT22;45570;48.782;8.332;2022-11-11T13:19:32;11.70;99.90
59703;DHT22;45570;48.782;8.332;2022-11-11T13:22:22;11.50;99.90
59703;DHT22;45570;48.782;8.332;2022-11-11T13:25:15;11.20;99.90
59703;DHT22;45570;48.782;8.332;2022-11-11T13:28:12;10.90;99.90
59703;DHT22;45570;48.782;8.332;2022-11-11T13:31:22;10.60;99.90
59703;DHT22;45570;48.782;8.332;2022-11-11T13:34:13;10.40;99.90
59703;DHT22;45570;48.782;8.332;2022-11-11T13:37:04;10.40;99.90
59703;DHT22;45570;48.782;8.332;2022-11-11T13:39:59;10.30;99.90
59703;DHT22;45570;48.782;8.332;2022-11-11T13:42:50;10.30;99.90
59703;DHT22;45570;48.782;8.332;2022-11-11T13:45:40;10.00;99.90
59703;DHT22;45570;48.782;8.332;2022-11-11T13:48:31;9.80;99.90
59703;DHT22;45570;48.782;8.332;2022-11-11T13:51:23;9.80;99.90
59703;DHT22;45570;48.782;8.332;2022-11-11T13:54:23;9.50;99.90
59703;DHT22;45570;48.782;8.332;2022-11-11T13:57:18;9.40;99.90
59703;DHT22;45570;48.782;8.332;2022-11-11T14:00:23;9.40;99.90
59703;DHT22;45570;48.782;8.332;2022-11-11T14:03:32;9.40;99.90
59703;DHT22;45570;48.782;8.332;2022-11-11T14:06:51;9.40;99.90
59703;DHT22;45570;48.782;8.332;2022-11-11T14:09:58;9.40;99.90
59703;DHT22;45570;48.782;8.332;2022-11-11T14:12:48;9.50;99.90
59703;DHT22;45570;48.782;8.332;2022-11-11T14:15:40;9.60;99.90
59703;DHT22;45570;48.782;8.332;2022-11-11T14:18:53;9.50;99.90
59703;DHT22;45570;48.782;8.332;2022-11-11T14:21:43;9.60;99.90
59703;DHT22;45570;48.782;8.332;2022-11-11T14:24:38;9.50;99.90
59703;DHT22;45570;48.782;8.332;2022-11-11T14:27:30;9.50;99.90
59703;DHT22;45570;48.782;8.332;2022-11-11T14:30:36;9.70;99.90
59703;DHT22;45570;48.782;8.332;2022-11-11T14:33:35;9.40;99.90
59703;DHT22;45570;48.782;8.332;2022-11-11T14:36:35;9.30;99.90
